createdAt,value
2022-12-11T00:01:05.754Z,57
2022-12-11T00:16:05.057Z,54
2022-12-11T00:31:04.909Z,56
2022-12-11T00:46:05.261Z,50
2022-12-11T01:01:05.842Z,57
2022-12-11T01:16:05.607Z,87
2022-12-11T01:31:05.078Z,81
2022-12-11T01:46:05.834Z,72
2022-12-11T02:01:05.759Z,78
2022-12-11T02:16:05.934Z,118
2022-12-11T02:31:05.052Z,96
2022-12-11T02:46:05.053Z,78
2022-12-11T03:01:05.581Z,78
2022-12-11T03:16:05.872Z,79
2022-12-11T03:31:05.276Z,79
2022-12-11T03:46:05.394Z,85
2022-12-11T04:01:05.605Z,87
2022-12-11T04:16:05.228Z,79
2022-12-11T04:31:05.684Z,84
2022-12-11T04:46:05.874Z,83
2022-12-11T05:01:04.773Z,86
2022-12-11T05:16:05.182Z,90
2022-12-11T05:31:05.710Z,75
2022-12-11T05:46:05.279Z,62
2022-12-11T06:01:05.169Z,62
2022-12-11T06:16:04.669Z,58
2022-12-11T06:31:05.735Z,75
2022-12-11T06:46:05.201Z,68
2022-12-11T07:01:04.737Z,68
2022-12-11T07:16:05.190Z,48
2022-12-11T07:31:05.443Z,41
2022-12-11T07:46:05.444Z,41
2022-12-11T08:01:05.493Z,44
2022-12-11T08:16:05.734Z,40
2022-12-11T08:31:05.594Z,45
2022-12-11T08:46:05.138Z,52
2022-12-11T09:01:05.091Z,45
2022-12-11T09:16:05.621Z,40
2022-12-11T09:31:05.759Z,43
2022-12-11T09:46:04.808Z,31
2022-12-11T10:01:04.926Z,35
2022-12-11T10:16:05.709Z,34
2022-12-11T10:31:05.765Z,49
2022-12-11T10:46:06.153Z,70
2022-12-11T11:01:04.785Z,51
2022-12-11T11:16:05.694Z,56
2022-12-11T11:31:05.584Z,54
2022-12-11T11:46:05.181Z,57
2022-12-11T12:01:05.469Z,72
2022-12-11T12:16:51.988Z,64
2022-12-11T12:31:05.739Z,57
2022-12-11T12:46:05.170Z,57
2022-12-11T13:01:04.915Z,56
2022-12-11T13:16:05.823Z,57
2022-12-11T13:31:04.876Z,68
2022-12-11T13:46:05.034Z,70
2022-12-11T14:01:05.758Z,64
2022-12-11T14:16:05.562Z,67
2022-12-11T14:31:05.853Z,75
2022-12-11T14:46:04.829Z,64
2022-12-11T15:01:05.134Z,71
2022-12-11T15:16:05.218Z,53
2022-12-11T15:31:05.734Z,67
2022-12-11T15:46:04.668Z,79
2022-12-11T16:01:05.725Z,77
2022-12-11T16:16:04.981Z,75
2022-12-11T16:31:05.168Z,76
2022-12-11T16:46:05.547Z,81
2022-12-11T17:01:05.532Z,78
2022-12-11T17:16:05.814Z,78
2022-12-11T17:31:05.162Z,73
2022-12-11T17:46:05.454Z,84
2022-12-11T18:01:05.335Z,81
2022-12-11T18:16:05.756Z,72
2022-12-11T18:31:05.086Z,69
2022-12-11T18:46:05.203Z,74
2022-12-11T19:01:04.881Z,61
2022-12-11T19:16:05.640Z,67
2022-12-11T19:31:05.935Z,64
2022-12-11T19:46:05.712Z,64
2022-12-11T20:01:05.954Z,61
2022-12-11T20:16:05.648Z,106
2022-12-11T20:31:05.633Z,146
2022-12-11T20:46:05.646Z,180
2022-12-11T21:01:05.891Z,107
2022-12-11T21:16:05.491Z,83
2022-12-11T21:31:05.473Z,78
2022-12-11T22:01:05.360Z,62
2022-12-11T22:16:05.571Z,68
2022-12-11T22:31:05.497Z,68
2022-12-11T22:46:05.550Z,65
2022-12-11T23:01:05.810Z,57
2022-12-11T23:16:05.334Z,62
2022-12-11T23:31:05.669Z,58
2022-12-11T23:46:05.756Z,58
